sensor_id;sensor_type;location;lat;lon;timestamp;P1;durP1;ratioP1;P2;durP2;ratioP2
45970;SDS011;31681;48.982;8.394;2023-02-14T00:00:04;112.10;;;20.57;;
45970;SDS011;31681;48.982;8.394;2023-02-14T00:02:33;114.40;;;20.30;;
45970;SDS011;31681;48.982;8.394;2023-02-14T00:04:59;63.77;;;19.10;;
45970;SDS011;31681;48.982;8.394;2023-02-14T00:07:24;70.73;;;18.53;;
45970;SDS011;31681;48.982;8.394;2023-02-14T00:09:50;69.27;;;18.83;;
45970;SDS011;31681;48.982;8.394;2023-02-14T00:12:16;110.57;;;20.70;;
45970;SDS011;31681;48.982;8.394;2023-02-14T00:14:41;142.80;;;21.47;;
45970;SDS011;31681;48.982;8.394;2023-02-14T00:17:25;133.67;;;20.03;;
45970;SDS011;31681;48.982;8.394;2023-02-14T00:19:51;129.43;;;20.23;;
45970;SDS011;31681;48.982;8.394;2023-02-14T00:22:16;85.43;;;18.40;;
45970;SDS011;31681;48.982;8.394;2023-02-14T00:24:42;80.70;;;18.50;;
45970;SDS011;31681;48.982;8.394;2023-02-14T00:27:07;69.80;;;17.40;;
45970;SDS011;31681;48.982;8.394;2023-02-14T00:29:33;68.93;;;18.40;;
45970;SDS011;31681;48.982;8.394;2023-02-14T00:32:00;98.67;;;18.53;;
45970;SDS011;31681;48.982;8.394;2023-02-14T00:34:26;48.67;;;17.33;;
45970;SDS011;31681;48.982;8.394;2023-02-14T00:36:52;81.10;;;17.07;;
45970;SDS011;31681;48.982;8.394;2023-02-14T00:39:18;64.77;;;18.13;;
45970;SDS011;31681;48.982;8.394;2023-02-14T00:41:44;89.87;;;18.63;;
45970;SDS011;31681;48.982;8.394;2023-02-14T00:44:10;59.17;;;18.70;;
45970;SDS011;31681;48.982;8.394;2023-02-14T00:46:37;94.70;;;20.47;;
45970;SDS011;31681;48.982;8.394;2023-02-14T00:49:03;53.43;;;19.50;;
45970;SDS011;31681;48.982;8.394;2023-02-14T00:51:29;92.90;;;20.20;;
45970;SDS011;31681;48.982;8.394;2023-02-14T00:53:55;80.27;;;18.63;;
45970;SDS011;31681;48.982;8.394;2023-02-14T00:56:21;53.53;;;18.50;;
45970;SDS011;31681;48.982;8.394;2023-02-14T00:58:46;115.00;;;19.70;;
45970;SDS011;31681;48.982;8.394;2023-02-14T01:01:13;82.07;;;20.13;;
45970;SDS011;31681;48.982;8.394;2023-02-14T01:03:40;124.27;;;20.43;;
45970;SDS011;31681;48.982;8.394;2023-02-14T01:06:06;69.57;;;19.17;;
45970;SDS011;31681;48.982;8.394;2023-02-14T01:08:32;91.63;;;20.27;;
45970;SDS011;31681;48.982;8.394;2023-02-14T01:11:05;68.13;;;17.47;;
45970;SDS011;31681;48.982;8.394;2023-02-14T01:13:31;90.73;;;19.43;;
45970;SDS011;31681;48.982;8.394;2023-02-14T01:15:57;73.97;;;17.97;;
45970;SDS011;31681;48.982;8.394;2023-02-14T01:18:22;59.27;;;17.23;;
45970;SDS011;31681;48.982;8.394;2023-02-14T01:20:48;61.70;;;16.67;;
45970;SDS011;31681;48.982;8.394;2023-02-14T01:23:13;76.23;;;17.87;;
45970;SDS011;31681;48.982;8.394;2023-02-14T01:25:40;88.97;;;18.23;;
45970;SDS011;31681;48.982;8.394;2023-02-14T01:28:05;71.53;;;18.20;;
45970;SDS011;31681;48.982;8.394;2023-02-14T01:30:31;96.83;;;18.07;;
45970;SDS011;31681;48.982;8.394;2023-02-14T01:32:57;104.67;;;20.03;;
45970;SDS011;31681;48.982;8.394;2023-02-14T01:35:22;83.87;;;17.47;;
45970;SDS011;31681;48.982;8.394;2023-02-14T01:37:49;49.17;;;16.83;;
45970;SDS011;31681;48.982;8.394;2023-02-14T01:40:14;93.27;;;19.27;;
45970;SDS011;31681;48.982;8.394;2023-02-14T01:42:41;93.40;;;18.63;;
45970;SDS011;31681;48.982;8.394;2023-02-14T01:45:15;74.07;;;17.47;;
45970;SDS011;31681;48.982;8.394;2023-02-14T01:47:45;54.70;;;17.60;;
45970;SDS011;31681;48.982;8.394;2023-02-14T01:50:20;66.73;;;18.70;;
45970;SDS011;31681;48.982;8.394;2023-02-14T01:53:03;53.60;;;16.80;;
45970;SDS011;31681;48.982;8.394;2023-02-14T01:55:31;53.37;;;18.07;;
45970;SDS011;31681;48.982;8.394;2023-02-14T01:58:05;61.23;;;17.97;;
45970;SDS011;31681;48.982;8.394;2023-02-14T02:00:35;54.17;;;18.23;;
45970;SDS011;31681;48.982;8.394;2023-02-14T02:03:21;70.37;;;18.27;;
45970;SDS011;31681;48.982;8.394;2023-02-14T02:05:51;113.83;;;20.17;;
45970;SDS011;31681;48.982;8.394;2023-02-14T02:08:22;57.00;;;18.00;;
45970;SDS011;31681;48.982;8.394;2023-02-14T02:10:48;50.10;;;17.10;;
45970;SDS011;31681;48.982;8.394;2023-02-14T02:13:15;57.07;;;17.80;;
45970;SDS011;31681;48.982;8.394;2023-02-14T02:15:50;67.13;;;18.77;;
45970;SDS011;31681;48.982;8.394;2023-02-14T02:18:25;61.90;;;18.07;;
45970;SDS011;31681;48.982;8.394;2023-02-14T02:37:40;50.83;;;16.97;;
45970;SDS011;31681;48.982;8.394;2023-02-14T02:43:00;40.80;;;16.33;;
45970;SDS011;31681;48.982;8.394;2023-02-14T02:49:07;58.57;;;16.90;;
45970;SDS011;31681;48.982;8.394;2023-02-14T02:52:01;72.73;;;18.03;;
45970;SDS011;31681;48.982;8.394;2023-02-14T02:54:57;60.93;;;17.13;;
45970;SDS011;31681;48.982;8.394;2023-02-14T02:57:32;45.60;;;16.63;;
45970;SDS011;31681;48.982;8.394;2023-02-14T03:00:03;58.03;;;17.40;;
45970;SDS011;31681;48.982;8.394;2023-02-14T03:02:32;41.07;;;16.37;;
45970;SDS011;31681;48.982;8.394;2023-02-14T03:05:22;44.67;;;16.80;;
45970;SDS011;31681;48.982;8.394;2023-02-14T03:07:49;56.50;;;16.87;;
45970;SDS011;31681;48.982;8.394;2023-02-14T03:10:22;54.73;;;16.60;;
45970;SDS011;31681;48.982;8.394;2023-02-14T03:21:56;47.03;;;15.03;;
45970;SDS011;31681;48.982;8.394;2023-02-14T03:24:39;54.50;;;16.37;;
45970;SDS011;31681;48.982;8.394;2023-02-14T03:27:17;78.83;;;17.37;;
45970;SDS011;31681;48.982;8.394;2023-02-14T03:35:25;51.27;;;16.53;;
45970;SDS011;31681;48.982;8.394;2023-02-14T03:38:06;46.00;;;15.50;;
45970;SDS011;31681;48.982;8.394;2023-02-14T03:43:00;58.27;;;17.27;;
45970;SDS011;31681;48.982;8.394;2023-02-14T03:45:35;52.10;;;15.70;;
45970;SDS011;31681;48.982;8.394;2023-02-14T03:48:07;54.47;;;15.37;;
45970;SDS011;31681;48.982;8.394;2023-02-14T03:50:35;56.73;;;16.27;;
45970;SDS011;31681;48.982;8.394;2023-02-14T03:53:04;38.63;;;14.97;;
45970;SDS011;31681;48.982;8.394;2023-02-14T03:55:40;43.20;;;14.37;;
45970;SDS011;31681;48.982;8.394;2023-02-14T03:58:15;36.20;;;13.80;;
45970;SDS011;31681;48.982;8.394;2023-02-14T04:00:49;41.37;;;14.10;;
45970;SDS011;31681;48.982;8.394;2023-02-14T04:03:19;36.10;;;13.73;;
45970;SDS011;31681;48.982;8.394;2023-02-14T04:05:47;92.60;;;16.27;;
45970;SDS011;31681;48.982;8.394;2023-02-14T04:08:24;52.43;;;15.07;;
45970;SDS011;31681;48.982;8.394;2023-02-14T04:10:51;52.47;;;14.67;;
45970;SDS011;31681;48.982;8.394;2023-02-14T04:13:17;41.90;;;14.10;;
45970;SDS011;31681;48.982;8.394;2023-02-14T04:15:43;56.93;;;14.03;;
45970;SDS011;31681;48.982;8.394;2023-02-14T04:18:09;43.10;;;15.27;;
45970;SDS011;31681;48.982;8.394;2023-02-14T04:20:53;43.30;;;14.70;;
45970;SDS011;31681;48.982;8.394;2023-02-14T04:23:18;36.93;;;14.87;;
45970;SDS011;31681;48.982;8.394;2023-02-14T04:25:44;35.20;;;13.60;;
45970;SDS011;31681;48.982;8.394;2023-02-14T04:28:10;44.33;;;16.10;;
45970;SDS011;31681;48.982;8.394;2023-02-14T04:30:36;50.13;;;15.77;;
45970;SDS011;31681;48.982;8.394;2023-02-14T04:33:02;34.57;;;14.53;;
45970;SDS011;31681;48.982;8.394;2023-02-14T04:35:28;34.77;;;15.67;;
45970;SDS011;31681;48.982;8.394;2023-02-14T04:37:54;34.37;;;15.53;;
45970;SDS011;31681;48.982;8.394;2023-02-14T04:40:19;40.00;;;15.67;;
45970;SDS011;31681;48.982;8.394;2023-02-14T04:42:45;34.47;;;14.67;;
45970;SDS011;31681;48.982;8.394;2023-02-14T04:45:11;33.33;;;15.10;;
45970;SDS011;31681;48.982;8.394;2023-02-14T04:47:37;27.73;;;14.43;;
45970;SDS011;31681;48.982;8.394;2023-02-14T04:50:03;35.73;;;14.93;;
45970;SDS011;31681;48.982;8.394;2023-02-14T04:52:29;39.33;;;15.43;;
45970;SDS011;31681;48.982;8.394;2023-02-14T04:54:54;37.90;;;14.87;;
45970;SDS011;31681;48.982;8.394;2023-02-14T04:57:20;50.67;;;16.80;;
45970;SDS011;31681;48.982;8.394;2023-02-14T04:59:46;37.83;;;15.67;;
45970;SDS011;31681;48.982;8.394;2023-02-14T05:02:11;64.97;;;16.43;;
45970;SDS011;31681;48.982;8.394;2023-02-14T05:04:37;31.27;;;14.90;;
45970;SDS011;31681;48.982;8.394;2023-02-14T05:07:02;45.57;;;17.30;;
45970;SDS011;31681;48.982;8.394;2023-02-14T05:09:28;36.03;;;16.10;;
45970;SDS011;31681;48.982;8.394;2023-02-14T05:11:53;43.07;;;16.57;;
45970;SDS011;31681;48.982;8.394;2023-02-14T05:14:19;44.00;;;17.47;;
45970;SDS011;31681;48.982;8.394;2023-02-14T05:16:44;55.00;;;17.60;;
45970;SDS011;31681;48.982;8.394;2023-02-14T05:19:10;45.47;;;16.63;;
45970;SDS011;31681;48.982;8.394;2023-02-14T05:21:36;46.10;;;17.17;;
45970;SDS011;31681;48.982;8.394;2023-02-14T05:24:02;52.57;;;16.10;;
45970;SDS011;31681;48.982;8.394;2023-02-14T05:26:28;34.63;;;16.60;;
45970;SDS011;31681;48.982;8.394;2023-02-14T05:28:53;44.90;;;16.83;;
45970;SDS011;31681;48.982;8.394;2023-02-14T05:31:19;40.77;;;17.30;;
45970;SDS011;31681;48.982;8.394;2023-02-14T05:33:44;39.33;;;17.27;;
45970;SDS011;31681;48.982;8.394;2023-02-14T05:36:10;52.83;;;17.63;;
45970;SDS011;31681;48.982;8.394;2023-02-14T05:38:35;51.17;;;17.47;;
45970;SDS011;31681;48.982;8.394;2023-02-14T05:41:01;49.13;;;18.10;;
45970;SDS011;31681;48.982;8.394;2023-02-14T05:43:27;38.80;;;16.67;;
45970;SDS011;31681;48.982;8.394;2023-02-14T05:45:54;62.87;;;16.90;;
45970;SDS011;31681;48.982;8.394;2023-02-14T05:48:20;51.43;;;16.67;;
45970;SDS011;31681;48.982;8.394;2023-02-14T05:50:45;37.67;;;16.20;;
45970;SDS011;31681;48.982;8.394;2023-02-14T05:53:11;48.13;;;16.80;;
45970;SDS011;31681;48.982;8.394;2023-02-14T05:55:37;46.50;;;16.83;;
45970;SDS011;31681;48.982;8.394;2023-02-14T05:58:03;55.83;;;17.10;;
45970;SDS011;31681;48.982;8.394;2023-02-14T06:00:28;44.60;;;16.63;;
45970;SDS011;31681;48.982;8.394;2023-02-14T06:02:54;37.27;;;16.87;;
45970;SDS011;31681;48.982;8.394;2023-02-14T06:05:19;42.43;;;16.23;;
45970;SDS011;31681;48.982;8.394;2023-02-14T06:07:47;42.67;;;17.33;;
45970;SDS011;31681;48.982;8.394;2023-02-14T06:10:21;47.47;;;18.27;;
45970;SDS011;31681;48.982;8.394;2023-02-14T06:12:50;39.10;;;17.27;;
45970;SDS011;31681;48.982;8.394;2023-02-14T06:15:17;42.50;;;16.23;;
45970;SDS011;31681;48.982;8.394;2023-02-14T06:17:43;53.87;;;17.83;;
45970;SDS011;31681;48.982;8.394;2023-02-14T06:20:10;44.33;;;17.07;;
45970;SDS011;31681;48.982;8.394;2023-02-14T06:22:36;37.10;;;16.23;;
45970;SDS011;31681;48.982;8.394;2023-02-14T06:25:03;39.90;;;16.67;;
45970;SDS011;31681;48.982;8.394;2023-02-14T06:27:29;39.27;;;16.33;;
45970;SDS011;31681;48.982;8.394;2023-02-14T06:29:55;57.07;;;17.47;;
45970;SDS011;31681;48.982;8.394;2023-02-14T06:32:21;41.90;;;17.40;;
45970;SDS011;31681;48.982;8.394;2023-02-14T06:34:47;63.60;;;18.67;;
45970;SDS011;31681;48.982;8.394;2023-02-14T06:37:12;43.23;;;17.50;;
45970;SDS011;31681;48.982;8.394;2023-02-14T06:39:38;42.93;;;18.10;;
45970;SDS011;31681;48.982;8.394;2023-02-14T06:42:04;44.63;;;16.87;;
45970;SDS011;31681;48.982;8.394;2023-02-14T06:44:30;42.53;;;16.90;;
45970;SDS011;31681;48.982;8.394;2023-02-14T06:46:55;56.63;;;17.87;;
45970;SDS011;31681;48.982;8.394;2023-02-14T06:49:21;75.93;;;20.33;;
45970;SDS011;31681;48.982;8.394;2023-02-14T06:51:48;81.30;;;18.70;;
45970;SDS011;31681;48.982;8.394;2023-02-14T06:54:13;152.00;;;21.67;;
45970;SDS011;31681;48.982;8.394;2023-02-14T06:56:39;63.33;;;18.23;;
45970;SDS011;31681;48.982;8.394;2023-02-14T06:59:05;52.03;;;17.93;;
45970;SDS011;31681;48.982;8.394;2023-02-14T07:01:30;48.23;;;18.37;;
45970;SDS011;31681;48.982;8.394;2023-02-14T07:03:56;47.23;;;16.67;;
45970;SDS011;31681;48.982;8.394;2023-02-14T07:06:21;63.17;;;19.17;;
45970;SDS011;31681;48.982;8.394;2023-02-14T07:08:47;70.87;;;20.23;;
45970;SDS011;31681;48.982;8.394;2023-02-14T07:11:12;103.87;;;20.50;;
45970;SDS011;31681;48.982;8.394;2023-02-14T07:13:38;57.03;;;17.70;;
45970;SDS011;31681;48.982;8.394;2023-02-14T07:16:03;65.53;;;18.27;;
45970;SDS011;31681;48.982;8.394;2023-02-14T07:18:29;48.13;;;18.87;;
45970;SDS011;31681;48.982;8.394;2023-02-14T07:20:54;76.83;;;19.67;;
45970;SDS011;31681;48.982;8.394;2023-02-14T07:23:20;53.73;;;17.00;;
45970;SDS011;31681;48.982;8.394;2023-02-14T07:25:46;55.50;;;18.10;;
45970;SDS011;31681;48.982;8.394;2023-02-14T07:28:11;46.57;;;16.37;;
45970;SDS011;31681;48.982;8.394;2023-02-14T07:30:37;44.17;;;18.00;;
45970;SDS011;31681;48.982;8.394;2023-02-14T07:33:02;72.33;;;19.73;;
45970;SDS011;31681;48.982;8.394;2023-02-14T07:35:28;39.70;;;16.20;;
45970;SDS011;31681;48.982;8.394;2023-02-14T07:37:53;43.70;;;18.50;;
45970;SDS011;31681;48.982;8.394;2023-02-14T07:40:19;40.07;;;18.13;;
45970;SDS011;31681;48.982;8.394;2023-02-14T07:42:52;53.40;;;18.83;;
45970;SDS011;31681;48.982;8.394;2023-02-14T07:45:20;49.87;;;22.70;;
45970;SDS011;31681;48.982;8.394;2023-02-14T07:47:50;49.63;;;20.07;;
45970;SDS011;31681;48.982;8.394;2023-02-14T07:50:18;45.00;;;18.17;;
45970;SDS011;31681;48.982;8.394;2023-02-14T07:52:44;56.33;;;19.13;;
45970;SDS011;31681;48.982;8.394;2023-02-14T07:55:10;43.27;;;17.47;;
45970;SDS011;31681;48.982;8.394;2023-02-14T07:57:35;59.20;;;20.47;;
45970;SDS011;31681;48.982;8.394;2023-02-14T08:00:01;42.47;;;17.60;;
45970;SDS011;31681;48.982;8.394;2023-02-14T08:02:37;41.33;;;18.30;;
45970;SDS011;31681;48.982;8.394;2023-02-14T08:05:02;44.93;;;18.57;;
45970;SDS011;31681;48.982;8.394;2023-02-14T08:07:28;50.10;;;18.10;;
45970;SDS011;31681;48.982;8.394;2023-02-14T08:09:53;41.97;;;17.73;;
45970;SDS011;31681;48.982;8.394;2023-02-14T08:12:19;44.37;;;16.70;;
45970;SDS011;31681;48.982;8.394;2023-02-14T08:15:03;70.60;;;16.67;;
45970;SDS011;31681;48.982;8.394;2023-02-14T08:17:47;49.93;;;17.97;;
45970;SDS011;31681;48.982;8.394;2023-02-14T08:20:13;47.67;;;17.93;;
45970;SDS011;31681;48.982;8.394;2023-02-14T08:22:38;40.13;;;17.07;;
45970;SDS011;31681;48.982;8.394;2023-02-14T08:25:04;47.33;;;19.07;;
45970;SDS011;31681;48.982;8.394;2023-02-14T08:27:30;52.13;;;19.87;;
45970;SDS011;31681;48.982;8.394;2023-02-14T08:29:55;46.03;;;17.87;;
45970;SDS011;31681;48.982;8.394;2023-02-14T08:32:21;43.03;;;18.20;;
45970;SDS011;31681;48.982;8.394;2023-02-14T08:34:46;48.50;;;20.00;;
45970;SDS011;31681;48.982;8.394;2023-02-14T08:37:12;49.00;;;17.93;;
45970;SDS011;31681;48.982;8.394;2023-02-14T08:39:38;47.83;;;19.33;;
45970;SDS011;31681;48.982;8.394;2023-02-14T08:42:04;46.37;;;17.47;;
45970;SDS011;31681;48.982;8.394;2023-02-14T08:44:30;43.13;;;18.13;;
45970;SDS011;31681;48.982;8.394;2023-02-14T08:46:56;45.77;;;18.83;;
45970;SDS011;31681;48.982;8.394;2023-02-14T08:49:22;49.67;;;18.97;;
45970;SDS011;31681;48.982;8.394;2023-02-14T08:51:47;48.63;;;19.37;;
45970;SDS011;31681;48.982;8.394;2023-02-14T08:54:13;39.27;;;16.50;;
45970;SDS011;31681;48.982;8.394;2023-02-14T08:56:38;43.87;;;16.90;;
45970;SDS011;31681;48.982;8.394;2023-02-14T08:59:04;38.00;;;16.93;;
45970;SDS011;31681;48.982;8.394;2023-02-14T09:01:30;44.70;;;17.30;;
45970;SDS011;31681;48.982;8.394;2023-02-14T09:03:56;40.67;;;16.97;;
45970;SDS011;31681;48.982;8.394;2023-02-14T09:06:22;39.87;;;16.87;;
45970;SDS011;31681;48.982;8.394;2023-02-14T09:08:48;37.03;;;15.43;;
45970;SDS011;31681;48.982;8.394;2023-02-14T09:11:15;37.63;;;16.60;;
45970;SDS011;31681;48.982;8.394;2023-02-14T09:13:43;41.10;;;17.20;;
45970;SDS011;31681;48.982;8.394;2023-02-14T09:16:10;43.63;;;18.70;;
45970;SDS011;31681;48.982;8.394;2023-02-14T09:18:37;40.67;;;17.57;;
45970;SDS011;31681;48.982;8.394;2023-02-14T09:21:10;43.80;;;20.03;;
45970;SDS011;31681;48.982;8.394;2023-02-14T09:23:41;42.27;;;18.50;;
45970;SDS011;31681;48.982;8.394;2023-02-14T09:26:08;42.23;;;19.07;;
45970;SDS011;31681;48.982;8.394;2023-02-14T09:28:35;37.57;;;16.60;;
45970;SDS011;31681;48.982;8.394;2023-02-14T09:34:02;38.40;;;17.67;;
45970;SDS011;31681;48.982;8.394;2023-02-14T09:36:46;42.40;;;18.83;;
45970;SDS011;31681;48.982;8.394;2023-02-14T09:39:31;41.43;;;18.20;;
45970;SDS011;31681;48.982;8.394;2023-02-14T09:44:57;46.43;;;19.37;;
45970;SDS011;31681;48.982;8.394;2023-02-14T09:48:13;43.63;;;19.07;;
45970;SDS011;31681;48.982;8.394;2023-02-14T09:50:46;45.67;;;19.27;;
45970;SDS011;31681;48.982;8.394;2023-02-14T09:53:26;48.33;;;18.17;;
45970;SDS011;31681;48.982;8.394;2023-02-14T09:56:03;46.30;;;19.03;;
45970;SDS011;31681;48.982;8.394;2023-02-14T10:04:15;47.67;;;21.00;;
45970;SDS011;31681;48.982;8.394;2023-02-14T10:09:35;48.47;;;20.53;;
45970;SDS011;31681;48.982;8.394;2023-02-14T10:12:19;52.90;;;20.90;;
45970;SDS011;31681;48.982;8.394;2023-02-14T10:15:09;52.80;;;22.10;;
45970;SDS011;31681;48.982;8.394;2023-02-14T10:17:45;46.47;;;20.10;;
45970;SDS011;31681;48.982;8.394;2023-02-14T10:20:28;48.43;;;21.17;;
45970;SDS011;31681;48.982;8.394;2023-02-14T10:23:02;46.00;;;21.53;;
45970;SDS011;31681;48.982;8.394;2023-02-14T10:25:43;46.43;;;20.40;;
45970;SDS011;31681;48.982;8.394;2023-02-14T10:28:15;46.20;;;21.20;;
45970;SDS011;31681;48.982;8.394;2023-02-14T10:30:53;48.50;;;20.30;;
45970;SDS011;31681;48.982;8.394;2023-02-14T10:33:54;46.73;;;21.63;;
45970;SDS011;31681;48.982;8.394;2023-02-14T10:58:15;43.77;;;20.67;;
45970;SDS011;31681;48.982;8.394;2023-02-14T11:00:48;42.87;;;20.53;;
45970;SDS011;31681;48.982;8.394;2023-02-14T11:03:37;39.27;;;20.10;;
45970;SDS011;31681;48.982;8.394;2023-02-14T11:06:09;41.67;;;20.77;;
45970;SDS011;31681;48.982;8.394;2023-02-14T11:08:35;48.43;;;21.50;;
45970;SDS011;31681;48.982;8.394;2023-02-14T11:13:43;40.90;;;19.93;;
45970;SDS011;31681;48.982;8.394;2023-02-14T11:16:10;44.63;;;19.37;;
45970;SDS011;31681;48.982;8.394;2023-02-14T11:18:42;40.73;;;19.93;;
45970;SDS011;31681;48.982;8.394;2023-02-14T11:21:14;46.33;;;20.43;;
45970;SDS011;31681;48.982;8.394;2023-02-14T11:23:46;46.20;;;20.30;;
45970;SDS011;31681;48.982;8.394;2023-02-14T11:26:22;40.20;;;20.20;;
45970;SDS011;31681;48.982;8.394;2023-02-14T11:28:56;37.13;;;18.33;;
45970;SDS011;31681;48.982;8.394;2023-02-14T11:31:31;39.40;;;20.33;;
45970;SDS011;31681;48.982;8.394;2023-02-14T11:33:59;43.37;;;20.07;;
45970;SDS011;31681;48.982;8.394;2023-02-14T11:36:27;43.20;;;22.03;;
45970;SDS011;31681;48.982;8.394;2023-02-14T11:38:55;42.03;;;20.70;;
45970;SDS011;31681;48.982;8.394;2023-02-14T11:41:27;40.40;;;20.10;;
45970;SDS011;31681;48.982;8.394;2023-02-14T11:44:13;40.67;;;20.23;;
45970;SDS011;31681;48.982;8.394;2023-02-14T11:46:50;41.43;;;19.20;;
45970;SDS011;31681;48.982;8.394;2023-02-14T11:49:33;37.77;;;19.97;;
45970;SDS011;31681;48.982;8.394;2023-02-14T11:52:02;42.73;;;22.00;;
45970;SDS011;31681;48.982;8.394;2023-02-14T11:54:35;40.03;;;19.97;;
45970;SDS011;31681;48.982;8.394;2023-02-14T11:59:56;41.57;;;20.40;;
45970;SDS011;31681;48.982;8.394;2023-02-14T12:02:30;39.77;;;20.07;;
45970;SDS011;31681;48.982;8.394;2023-02-14T12:05:02;39.90;;;19.93;;
45970;SDS011;31681;48.982;8.394;2023-02-14T12:07:32;45.47;;;19.80;;
45970;SDS011;31681;48.982;8.394;2023-02-14T12:12:36;42.13;;;20.47;;
45970;SDS011;31681;48.982;8.394;2023-02-14T12:15:33;42.43;;;22.03;;
45970;SDS011;31681;48.982;8.394;2023-02-14T12:21:09;39.47;;;19.80;;
45970;SDS011;31681;48.982;8.394;2023-02-14T12:32:26;36.23;;;18.77;;
45970;SDS011;31681;48.982;8.394;2023-02-14T12:35:12;35.90;;;18.27;;
45970;SDS011;31681;48.982;8.394;2023-02-14T12:46:30;36.97;;;18.90;;
45970;SDS011;31681;48.982;8.394;2023-02-14T12:49:00;36.90;;;19.53;;
45970;SDS011;31681;48.982;8.394;2023-02-14T12:51:47;33.93;;;18.97;;
45970;SDS011;31681;48.982;8.394;2023-02-14T12:54:27;41.13;;;19.97;;
45970;SDS011;31681;48.982;8.394;2023-02-14T12:57:09;37.80;;;18.67;;
45970;SDS011;31681;48.982;8.394;2023-02-14T12:59:56;37.67;;;18.13;;
45970;SDS011;31681;48.982;8.394;2023-02-14T13:06:26;38.33;;;19.23;;
45970;SDS011;31681;48.982;8.394;2023-02-14T13:08:55;39.07;;;19.53;;
45970;SDS011;31681;48.982;8.394;2023-02-14T13:14:22;36.07;;;19.20;;
45970;SDS011;31681;48.982;8.394;2023-02-14T13:17:02;38.00;;;19.20;;
45970;SDS011;31681;48.982;8.394;2023-02-14T13:22:49;40.47;;;19.00;;
45970;SDS011;31681;48.982;8.394;2023-02-14T13:25:20;37.67;;;18.23;;
45970;SDS011;31681;48.982;8.394;2023-02-14T13:28:05;40.03;;;20.50;;
45970;SDS011;31681;48.982;8.394;2023-02-14T13:30:35;38.23;;;18.70;;
45970;SDS011;31681;48.982;8.394;2023-02-14T13:36:09;39.70;;;19.83;;
45970;SDS011;31681;48.982;8.394;2023-02-14T13:38:47;39.73;;;19.83;;
45970;SDS011;31681;48.982;8.394;2023-02-14T13:41:15;41.57;;;20.10;;
45970;SDS011;31681;48.982;8.394;2023-02-14T13:43:47;38.93;;;19.60;;
45970;SDS011;31681;48.982;8.394;2023-02-14T13:47:02;36.53;;;19.47;;
45970;SDS011;31681;48.982;8.394;2023-02-14T13:51:51;35.30;;;18.93;;
45970;SDS011;31681;48.982;8.394;2023-02-14T13:56:46;36.47;;;19.23;;
45970;SDS011;31681;48.982;8.394;2023-02-14T13:59:29;34.90;;;18.07;;
45970;SDS011;31681;48.982;8.394;2023-02-14T14:04:53;34.53;;;18.93;;
45970;SDS011;31681;48.982;8.394;2023-02-14T14:07:23;34.60;;;17.70;;
45970;SDS011;31681;48.982;8.394;2023-02-14T14:09:54;30.57;;;17.77;;
45970;SDS011;31681;48.982;8.394;2023-02-14T14:22:49;33.90;;;17.53;;
45970;SDS011;31681;48.982;8.394;2023-02-14T14:25:35;36.97;;;19.37;;
45970;SDS011;31681;48.982;8.394;2023-02-14T14:28:03;34.30;;;17.73;;
45970;SDS011;31681;48.982;8.394;2023-02-14T14:30:42;36.20;;;20.27;;
45970;SDS011;31681;48.982;8.394;2023-02-14T14:33:12;37.00;;;19.47;;
45970;SDS011;31681;48.982;8.394;2023-02-14T14:35:39;32.63;;;19.10;;
45970;SDS011;31681;48.982;8.394;2023-02-14T14:38:20;36.13;;;18.00;;
45970;SDS011;31681;48.982;8.394;2023-02-14T14:40:48;37.17;;;20.63;;
45970;SDS011;31681;48.982;8.394;2023-02-14T14:43:26;37.00;;;19.20;;
45970;SDS011;31681;48.982;8.394;2023-02-14T14:45:54;34.87;;;17.70;;
45970;SDS011;31681;48.982;8.394;2023-02-14T14:48:34;34.00;;;19.10;;
45970;SDS011;31681;48.982;8.394;2023-02-14T14:51:07;33.00;;;18.20;;
45970;SDS011;31681;48.982;8.394;2023-02-14T14:53:47;33.07;;;18.97;;
45970;SDS011;31681;48.982;8.394;2023-02-14T14:56:18;31.63;;;18.43;;
45970;SDS011;31681;48.982;8.394;2023-02-14T14:58:46;36.70;;;18.20;;
45970;SDS011;31681;48.982;8.394;2023-02-14T15:01:13;36.20;;;18.97;;
45970;SDS011;31681;48.982;8.394;2023-02-14T15:03:53;36.17;;;19.17;;
45970;SDS011;31681;48.982;8.394;2023-02-14T15:06:20;39.53;;;20.73;;
45970;SDS011;31681;48.982;8.394;2023-02-14T15:08:46;35.10;;;21.47;;
45970;SDS011;31681;48.982;8.394;2023-02-14T15:14:05;35.20;;;20.37;;
45970;SDS011;31681;48.982;8.394;2023-02-14T15:16:40;37.83;;;20.13;;
45970;SDS011;31681;48.982;8.394;2023-02-14T15:19:18;36.60;;;19.40;;
45970;SDS011;31681;48.982;8.394;2023-02-14T15:21:55;37.37;;;19.07;;
45970;SDS011;31681;48.982;8.394;2023-02-14T15:24:21;37.00;;;20.57;;
45970;SDS011;31681;48.982;8.394;2023-02-14T15:26:47;35.33;;;20.03;;
45970;SDS011;31681;48.982;8.394;2023-02-14T15:29:21;35.70;;;19.60;;
45970;SDS011;31681;48.982;8.394;2023-02-14T15:31:51;38.87;;;20.27;;
45970;SDS011;31681;48.982;8.394;2023-02-14T15:34:19;37.57;;;20.60;;
45970;SDS011;31681;48.982;8.394;2023-02-14T15:36:47;37.10;;;19.67;;
45970;SDS011;31681;48.982;8.394;2023-02-14T15:39:16;41.40;;;21.10;;
45970;SDS011;31681;48.982;8.394;2023-02-14T15:41:43;39.47;;;19.80;;
45970;SDS011;31681;48.982;8.394;2023-02-14T15:44:17;37.67;;;19.47;;
45970;SDS011;31681;48.982;8.394;2023-02-14T15:46:44;42.87;;;20.77;;
45970;SDS011;31681;48.982;8.394;2023-02-14T15:49:10;39.57;;;20.67;;
45970;SDS011;31681;48.982;8.394;2023-02-14T15:51:44;40.13;;;21.17;;
45970;SDS011;31681;48.982;8.394;2023-02-14T15:57:22;36.60;;;20.10;;
45970;SDS011;31681;48.982;8.394;2023-02-14T15:59:50;40.87;;;20.30;;
45970;SDS011;31681;48.982;8.394;2023-02-14T16:02:23;36.33;;;20.23;;
45970;SDS011;31681;48.982;8.394;2023-02-14T16:04:51;34.83;;;19.37;;
45970;SDS011;31681;48.982;8.394;2023-02-14T16:07:20;38.67;;;21.03;;
45970;SDS011;31681;48.982;8.394;2023-02-14T16:10:17;39.97;;;21.43;;
45970;SDS011;31681;48.982;8.394;2023-02-14T16:15:32;39.07;;;20.00;;
45970;SDS011;31681;48.982;8.394;2023-02-14T16:18:00;40.03;;;19.50;;
45970;SDS011;31681;48.982;8.394;2023-02-14T16:23:13;39.03;;;21.77;;
45970;SDS011;31681;48.982;8.394;2023-02-14T16:25:40;38.70;;;20.00;;
45970;SDS011;31681;48.982;8.394;2023-02-14T16:28:06;37.93;;;20.43;;
45970;SDS011;31681;48.982;8.394;2023-02-14T16:30:33;41.33;;;21.17;;
45970;SDS011;31681;48.982;8.394;2023-02-14T16:32:59;44.50;;;22.77;;
45970;SDS011;31681;48.982;8.394;2023-02-14T16:35:25;40.90;;;22.10;;
45970;SDS011;31681;48.982;8.394;2023-02-14T16:37:51;42.67;;;20.90;;
45970;SDS011;31681;48.982;8.394;2023-02-14T16:40:17;42.50;;;23.70;;
45970;SDS011;31681;48.982;8.394;2023-02-14T16:42:47;37.63;;;21.27;;
45970;SDS011;31681;48.982;8.394;2023-02-14T16:45:13;47.07;;;25.77;;
45970;SDS011;31681;48.982;8.394;2023-02-14T16:47:40;38.43;;;22.50;;
45970;SDS011;31681;48.982;8.394;2023-02-14T16:50:08;36.63;;;20.80;;
45970;SDS011;31681;48.982;8.394;2023-02-14T16:52:34;43.73;;;24.03;;
45970;SDS011;31681;48.982;8.394;2023-02-14T16:55:00;46.27;;;22.63;;
45970;SDS011;31681;48.982;8.394;2023-02-14T16:57:28;38.43;;;21.33;;
45970;SDS011;31681;48.982;8.394;2023-02-14T16:59:57;40.20;;;21.87;;
45970;SDS011;31681;48.982;8.394;2023-02-14T17:02:23;44.30;;;22.57;;
45970;SDS011;31681;48.982;8.394;2023-02-14T17:04:54;40.30;;;21.33;;